createdAt,value
2018-12-15T00:00:35.728Z,-2.4
2018-12-15T00:01:35.703Z,-2.37
2018-12-15T00:02:35.684Z,-2.36
2018-12-15T00:03:35.661Z,-2.39
2018-12-15T00:04:35.396Z,-2.4
2018-12-15T00:05:35.624Z,-2.36
2018-12-15T00:06:35.600Z,-2.34
2018-12-15T00:07:35.592Z,-2.43
2018-12-15T00:08:35.563Z,-2.39
2018-12-15T00:09:35.546Z,-2.39
2018-12-15T00:10:35.277Z,-2.32
2018-12-15T00:11:35.526Z,-2.4
2018-12-15T00:12:35.475Z,-2.42
2018-12-15T00:13:35.455Z,-2.39
2018-12-15T00:14:35.199Z,-2.34
2018-12-15T00:15:35.416Z,-2.37
2018-12-15T00:16:35.401Z,-2.36
2018-12-15T00:17:35.385Z,-2.34
2018-12-15T00:18:35.358Z,-2.43
2018-12-15T00:19:35.091Z,-2.39
2018-12-15T00:20:35.316Z,-2.44
2018-12-15T00:21:35.376Z,-2.42
2018-12-15T00:22:35.285Z,-2.49
2018-12-15T00:23:35.262Z,-2.42
2018-12-15T00:24:35.230Z,-2.4
2018-12-15T00:25:35.209Z,-2.4
2018-12-15T00:26:35.195Z,-2.47
2018-12-15T00:27:35.230Z,-2.47
2018-12-15T00:28:35.159Z,-2.37
2018-12-15T00:29:34.879Z,-2.39
2018-12-15T00:30:35.108Z,-2.55
2018-12-15T00:31:35.088Z,-2.53
2018-12-15T00:32:35.071Z,-2.4
2018-12-15T00:33:35.054Z,-2.44
2018-12-15T00:34:34.783Z,-2.39
2018-12-15T00:35:35.027Z,-2.46
2018-12-15T00:36:34.990Z,-2.47
2018-12-15T00:37:34.970Z,-2.55
2018-12-15T00:38:34.946Z,-2.55
2018-12-15T00:39:34.924Z,-2.42
2018-12-15T00:40:34.910Z,-2.47
2018-12-15T00:41:34.883Z,-2.46
2018-12-15T00:42:34.866Z,-2.4
2018-12-15T00:43:34.599Z,-2.44
2018-12-15T00:44:34.823Z,-2.49
2018-12-15T00:45:34.800Z,-2.5
2018-12-15T00:46:34.792Z,-2.47
2018-12-15T00:47:34.773Z,-2.49
2018-12-15T00:48:34.743Z,-2.42
2018-12-15T00:49:34.725Z,-2.46
2018-12-15T00:50:34.707Z,-2.5
2018-12-15T00:51:34.696Z,-2.53
2018-12-15T00:52:34.667Z,-2.5
2018-12-15T00:53:34.642Z,-2.5
2018-12-15T00:54:34.620Z,-2.47
2018-12-15T00:55:34.600Z,-2.44
2018-12-15T00:56:34.333Z,-2.47
2018-12-15T00:57:34.562Z,-2.47
2018-12-15T00:58:34.544Z,-2.47
2018-12-15T00:59:34.525Z,-2.44
2018-12-15T01:00:34.495Z,-2.42
2018-12-15T01:01:34.494Z,-2.47
2018-12-15T01:02:34.461Z,-2.47
2018-12-15T01:03:34.506Z,-2.5
2018-12-15T01:04:34.468Z,-2.49
2018-12-15T01:05:34.402Z,-2.49
2018-12-15T01:06:34.381Z,-2.58
2018-12-15T01:07:35.224Z,-2.5
2018-12-15T01:08:34.340Z,-2.47
2018-12-15T01:09:34.317Z,-2.5
2018-12-15T01:10:34.296Z,-2.54
2018-12-15T01:11:34.273Z,-2.47
2018-12-15T01:12:34.257Z,-2.47
2018-12-15T01:13:34.249Z,-2.53
2018-12-15T01:14:34.216Z,-2.47
2018-12-15T01:15:34.222Z,-2.5
2018-12-15T01:16:34.172Z,-2.46
2018-12-15T01:17:34.172Z,-2.5
2018-12-15T01:18:34.133Z,-2.5
2018-12-15T01:19:34.128Z,-2.49
2018-12-15T01:20:34.092Z,-2.47
2018-12-15T01:21:34.081Z,-2.46
2018-12-15T01:22:34.054Z,-2.47
2018-12-15T01:23:34.033Z,-2.5
2018-12-15T01:24:34.016Z,-2.55
2018-12-15T01:25:33.746Z,-2.55
2018-12-15T01:26:33.971Z,-2.49
2018-12-15T01:27:33.956Z,-2.46
2018-12-15T01:28:33.931Z,-2.5
2018-12-15T01:29:33.668Z,-2.62
2018-12-15T01:30:33.894Z,-2.47
2018-12-15T01:31:33.880Z,-2.54
2018-12-15T01:32:33.849Z,-2.57
2018-12-15T01:33:33.832Z,-2.58
2018-12-15T01:34:33.810Z,-2.57
2018-12-15T01:35:33.787Z,-2.49
2018-12-15T01:36:33.775Z,-2.5
2018-12-15T01:37:33.749Z,-2.44
2018-12-15T01:38:33.732Z,-2.49
2018-12-15T01:39:33.708Z,-2.54
2018-12-15T01:40:33.698Z,-2.5
2018-12-15T01:41:33.670Z,-2.53
2018-12-15T01:42:33.648Z,-2.53
2018-12-15T01:43:33.628Z,-2.53
2018-12-15T01:44:33.609Z,-2.58
2018-12-15T01:45:33.592Z,-2.54
2018-12-15T01:46:33.642Z,-2.67
2018-12-15T01:47:33.547Z,-2.61
2018-12-15T01:48:33.524Z,-2.5
2018-12-15T01:49:33.509Z,-2.47
2018-12-15T01:50:33.482Z,-2.47
2018-12-15T01:51:33.467Z,-2.55
2018-12-15T01:52:33.446Z,-2.58
2018-12-15T01:53:33.425Z,-2.49
2018-12-15T01:54:33.405Z,-2.5
2018-12-15T01:55:33.382Z,-2.54
2018-12-15T01:56:33.405Z,-2.53
2018-12-15T01:57:33.344Z,-2.5
2018-12-15T01:58:33.321Z,-2.57
2018-12-15T01:59:33.298Z,-2.55
2018-12-15T02:00:33.282Z,-2.53
2018-12-15T02:01:33.265Z,-2.49
2018-12-15T02:02:33.241Z,-2.44
2018-12-15T02:03:33.217Z,-2.49
2018-12-15T02:04:33.204Z,-2.43
2018-12-15T02:05:33.181Z,-2.4
2018-12-15T02:06:33.158Z,-2.47
2018-12-15T02:07:33.140Z,-2.49
2018-12-15T02:08:33.124Z,-2.49
2018-12-15T02:09:33.098Z,-2.47
2018-12-15T02:10:33.074Z,-2.49
2018-12-15T02:11:32.808Z,-2.47
2018-12-15T02:12:32.787Z,-2.49
2018-12-15T02:13:33.020Z,-2.46
2018-12-15T02:14:32.997Z,-2.43
2018-12-15T02:15:32.979Z,-2.53
2018-12-15T02:16:32.961Z,-2.57
2018-12-15T02:17:38.467Z,-2.57
2018-12-15T02:18:32.666Z,-2.64
2018-12-15T02:19:32.898Z,-2.62
2018-12-15T02:20:32.884Z,-2.57
2018-12-15T02:21:32.852Z,-2.58
2018-12-15T02:22:32.836Z,-2.62
2018-12-15T02:23:32.817Z,-2.57
2018-12-15T02:24:32.793Z,-2.55
2018-12-15T02:25:32.772Z,-2.61
2018-12-15T02:26:32.750Z,-2.62
2018-12-15T02:27:32.728Z,-2.64
2018-12-15T02:28:32.711Z,-2.57
2018-12-15T02:29:32.449Z,-2.64
2018-12-15T02:30:32.668Z,-2.62
2018-12-15T02:31:32.658Z,-2.62
2018-12-15T02:32:32.636Z,-2.67
2018-12-15T02:33:32.611Z,-2.62
2018-12-15T02:34:32.595Z,-2.62
2018-12-15T02:35:32.581Z,-2.6
2018-12-15T02:36:32.557Z,-2.65
2018-12-15T02:37:32.537Z,-2.68
2018-12-15T02:38:32.509Z,-2.61
2018-12-15T02:39:32.491Z,-2.6
2018-12-15T02:40:32.480Z,-2.57
2018-12-15T02:41:32.216Z,-2.61
2018-12-15T02:42:32.423Z,-2.6
2018-12-15T02:43:32.406Z,-2.47
2018-12-15T02:44:32.397Z,-2.53
2018-12-15T02:45:32.372Z,-2.67
2018-12-15T02:46:32.349Z,-2.67
2018-12-15T02:47:32.322Z,-2.64
2018-12-15T02:48:32.477Z,-2.62
2018-12-15T02:49:32.285Z,-2.53
2018-12-15T02:50:32.306Z,-2.6
2018-12-15T02:51:32.288Z,-2.61
2018-12-15T02:52:32.242Z,-2.53
2018-12-15T02:53:32.229Z,-2.46
2018-12-15T02:54:32.223Z,-2.57
2018-12-15T02:55:31.919Z,-2.5
2018-12-15T02:56:32.141Z,-2.57
2018-12-15T02:57:32.130Z,-2.67
2018-12-15T02:58:32.120Z,-2.65
2018-12-15T02:59:32.082Z,-2.6
2018-12-15T03:00:32.059Z,-2.65
2018-12-15T03:01:32.106Z,-2.62
2018-12-15T03:02:32.020Z,-2.58
2018-12-15T03:03:32.033Z,-2.61
2018-12-15T03:04:31.976Z,-2.61
2018-12-15T03:05:31.964Z,-2.64
2018-12-15T03:06:31.936Z,-2.67
2018-12-15T03:07:31.914Z,-2.67
2018-12-15T03:08:31.913Z,-2.61
2018-12-15T03:09:31.636Z,-2.62
2018-12-15T03:10:31.851Z,-2.6
2018-12-15T03:11:31.848Z,-2.55
2018-12-15T03:12:31.822Z,-2.47
2018-12-15T03:13:31.790Z,-2.58
2018-12-15T03:14:31.776Z,-2.62
2018-12-15T03:15:31.750Z,-2.55
2018-12-15T03:16:31.728Z,-2.57
2018-12-15T03:17:31.474Z,-2.62
2018-12-15T03:18:31.692Z,-2.58
2018-12-15T03:19:31.666Z,-2.64
2018-12-15T03:20:31.655Z,-2.61
2018-12-15T03:21:31.640Z,-2.54
2018-12-15T03:22:31.607Z,-2.54
2018-12-15T03:23:31.594Z,-2.58
2018-12-15T03:24:31.636Z,-2.49
2018-12-15T03:25:31.550Z,-2.55
2018-12-15T03:26:31.568Z,-2.5
2018-12-15T03:27:31.262Z,-2.54
2018-12-15T03:28:31.279Z,-2.5
2018-12-15T03:29:31.467Z,-2.49
2018-12-15T03:30:31.510Z,-2.5
2018-12-15T03:31:34.300Z,-2.5
2018-12-15T03:32:31.515Z,-2.49
2018-12-15T03:33:31.387Z,-2.49
2018-12-15T03:34:31.368Z,-2.47
2018-12-15T03:35:31.102Z,-2.58
2018-12-15T03:36:31.323Z,-2.55
2018-12-15T03:37:31.347Z,-2.54
2018-12-15T03:38:31.284Z,-2.54
2018-12-15T03:39:31.327Z,-2.5
2018-12-15T03:40:31.258Z,-2.55
2018-12-15T03:41:31.237Z,-2.6
2018-12-15T03:42:31.198Z,-2.53
2018-12-15T03:43:31.184Z,-2.47
2018-12-15T03:44:31.162Z,-2.53
2018-12-15T03:45:31.179Z,-2.6
2018-12-15T03:46:31.126Z,-2.54
2018-12-15T03:47:31.109Z,-2.53
2018-12-15T03:48:31.083Z,-2.49
2018-12-15T03:49:31.083Z,-2.47
2018-12-15T03:50:31.035Z,-2.5
2018-12-15T03:51:31.021Z,-2.47
2018-12-15T03:52:30.998Z,-2.49
2018-12-15T03:53:30.980Z,-2.5
2018-12-15T03:54:30.958Z,-2.49
2018-12-15T03:55:30.939Z,-2.49
2018-12-15T03:56:30.917Z,-2.5
2018-12-15T03:57:30.904Z,-2.47
2018-12-15T03:58:30.885Z,-2.49
2018-12-15T03:59:30.859Z,-2.47
2018-12-15T04:00:30.845Z,-2.5
2018-12-15T04:01:30.815Z,-2.5
2018-12-15T04:02:30.816Z,-2.5
2018-12-15T04:03:30.772Z,-2.49
2018-12-15T04:04:30.847Z,-2.5
2018-12-15T04:05:30.742Z,-2.46
2018-12-15T04:06:30.465Z,-2.49
2018-12-15T04:07:30.694Z,-2.49
2018-12-15T04:08:30.673Z,-2.5
2018-12-15T04:09:30.657Z,-2.53
2018-12-15T04:10:30.417Z,-2.46
2018-12-15T04:11:30.612Z,-2.53
2018-12-15T04:12:30.351Z,-2.54
2018-12-15T04:13:30.591Z,-2.39
2018-12-15T04:14:30.318Z,-2.49
2018-12-15T04:15:30.532Z,-2.46
2018-12-15T04:16:30.264Z,-2.49
2018-12-15T04:17:30.495Z,-2.47
2018-12-15T04:18:30.476Z,-2.53
2018-12-15T04:19:30.519Z,-2.32
2018-12-15T04:20:30.192Z,-2.39
2018-12-15T04:21:30.411Z,-2.34
2018-12-15T04:22:30.387Z,-2.37
2018-12-15T04:23:30.371Z,-2.37
2018-12-15T04:24:30.342Z,-2.42
2018-12-15T04:25:30.082Z,-2.4
2018-12-15T04:26:30.068Z,-2.4
2018-12-15T04:27:30.287Z,-2.37
2018-12-15T04:28:30.263Z,-2.4
2018-12-15T04:29:29.996Z,-2.39
2018-12-15T04:30:29.986Z,-2.4
2018-12-15T04:31:30.206Z,-2.39
2018-12-15T04:32:30.186Z,-2.42
2018-12-15T04:33:30.162Z,-2.36
2018-12-15T04:34:30.165Z,-2.36
2018-12-15T04:35:30.134Z,-2.32
2018-12-15T04:36:30.100Z,-2.36
2018-12-15T04:37:29.894Z,-2.34
2018-12-15T04:38:29.812Z,-2.37
2018-12-15T04:39:30.059Z,-2.34
2018-12-15T04:40:29.780Z,-2.39
2018-12-15T04:41:30.005Z,-2.39
2018-12-15T04:42:29.973Z,-2.36
2018-12-15T04:43:29.960Z,-2.3
2018-12-15T04:44:29.950Z,-2.36
2018-12-15T04:45:29.930Z,-2.37
2018-12-15T04:46:29.909Z,-2.37
2018-12-15T04:47:29.644Z,-2.39
2018-12-15T04:48:29.618Z,-2.39
2018-12-15T04:49:29.947Z,-2.36
2018-12-15T04:50:29.854Z,-2.46
2018-12-15T04:51:29.858Z,-2.39
2018-12-15T04:52:29.779Z,-2.53
2018-12-15T04:53:29.823Z,-2.4
2018-12-15T04:54:29.776Z,-2.4
2018-12-15T04:55:29.830Z,-2.5
2018-12-15T04:56:29.705Z,-2.36
2018-12-15T04:57:29.675Z,-2.39
2018-12-15T04:58:29.660Z,-2.42
2018-12-15T04:59:29.656Z,-2.43
2018-12-15T05:00:29.632Z,-2.32
2018-12-15T05:01:29.623Z,-2.37
2018-12-15T05:02:29.333Z,-2.3
2018-12-15T05:03:29.576Z,-2.46
2018-12-15T05:04:29.533Z,-2.4
2018-12-15T05:05:29.518Z,-2.36
2018-12-15T05:06:29.491Z,-2.4
2018-12-15T05:07:29.232Z,-2.27
2018-12-15T05:08:29.454Z,-2.36
2018-12-15T05:09:29.436Z,-2.39
2018-12-15T05:10:29.413Z,-2.36
2018-12-15T05:11:29.415Z,-2.42
2018-12-15T05:12:29.132Z,-2.43
2018-12-15T05:13:29.155Z,-2.43
2018-12-15T05:14:29.337Z,-2.3
2018-12-15T05:15:29.067Z,-2.43
2018-12-15T05:16:29.379Z,-2.44
2018-12-15T05:17:29.023Z,-2.34
2018-12-15T05:18:29.305Z,-2.4
2018-12-15T05:19:29.290Z,-2.25
2018-12-15T05:20:29.273Z,-2.42
2018-12-15T05:21:29.022Z,-2.42
2018-12-15T05:22:29.207Z,-2.39
2018-12-15T05:23:29.244Z,-2.43
2018-12-15T05:24:29.128Z,-2.42
2018-12-15T05:25:29.112Z,-2.39
2018-12-15T05:26:29.085Z,-2.4
2018-12-15T05:27:28.638Z,-2.27
2018-12-15T05:28:29.045Z,-2.36
2018-12-15T05:29:28.564Z,-2.32
2018-12-15T05:30:29.007Z,-2.36
2018-12-15T05:31:28.736Z,-2.36
2018-12-15T05:32:28.964Z,-2.43
2018-12-15T05:33:28.951Z,-2.49
2018-12-15T05:34:28.929Z,-2.37
2018-12-15T05:35:28.903Z,-2.36
2018-12-15T05:36:28.882Z,-2.4
2018-12-15T05:37:28.614Z,-2.36
2018-12-15T05:38:28.593Z,-2.47
2018-12-15T05:39:28.818Z,-2.3
2018-12-15T05:40:28.805Z,-2.36
2018-12-15T05:41:28.782Z,-2.37
2018-12-15T05:42:28.764Z,-2.4
2018-12-15T05:43:28.744Z,-2.37
2018-12-15T05:44:28.719Z,-2.3
2018-12-15T05:45:28.702Z,-2.24
2018-12-15T05:46:28.681Z,-2.46
2018-12-15T05:47:28.661Z,-2.34
2018-12-15T05:48:30.282Z,-2.32
2018-12-15T05:49:28.617Z,-2.4
2018-12-15T05:50:28.596Z,-2.32
2018-12-15T05:51:28.580Z,-2.43
2018-12-15T05:52:28.559Z,-2.42
2018-12-15T05:53:28.543Z,-2.34
2018-12-15T05:54:28.520Z,-2.32
2018-12-15T05:55:28.499Z,-2.37
2018-12-15T05:56:28.479Z,-2.42
2018-12-15T05:57:28.214Z,-2.39
2018-12-15T05:58:28.439Z,-2.34
2018-12-15T05:59:28.422Z,-2.42
2018-12-15T06:00:28.400Z,-2.42
2018-12-15T06:01:28.379Z,-2.39
2018-12-15T06:02:28.353Z,-2.34
2018-12-15T06:03:28.333Z,-2.46
2018-12-15T06:04:28.314Z,-2.32
2018-12-15T06:05:28.297Z,-2.36
2018-12-15T06:06:28.025Z,-2.43
2018-12-15T06:07:28.250Z,-2.36
2018-12-15T06:08:27.984Z,-2.46
2018-12-15T06:09:28.219Z,-2.37
2018-12-15T06:10:28.341Z,-2.39
2018-12-15T06:11:28.175Z,-2.39
2018-12-15T06:12:28.165Z,-2.37
2018-12-15T06:13:27.882Z,-2.4
2018-12-15T06:14:28.107Z,-2.37
2018-12-15T06:15:28.100Z,-2.37
2018-12-15T06:16:28.080Z,-2.32
2018-12-15T06:17:28.055Z,-2.43
2018-12-15T06:18:34.042Z,-2.54
2018-12-15T06:19:28.072Z,-2.37
2018-12-15T06:20:27.995Z,-2.32
2018-12-15T06:21:28.003Z,-2.4
2018-12-15T06:22:27.947Z,-2.36
2018-12-15T06:23:27.932Z,-2.3
2018-12-15T06:24:27.970Z,-2.37
2018-12-15T06:25:27.899Z,-2.28
2018-12-15T06:26:27.867Z,-2.32
2018-12-15T06:27:27.603Z,-2.43
2018-12-15T06:28:27.828Z,-2.43
2018-12-15T06:29:27.808Z,-2.34
2018-12-15T06:30:27.783Z,-2.36
2018-12-15T06:31:27.764Z,-2.36
2018-12-15T06:32:27.745Z,-2.39
2018-12-15T06:33:27.727Z,-2.37
2018-12-15T06:34:27.706Z,-2.43
2018-12-15T06:35:27.435Z,-2.36
2018-12-15T06:36:27.668Z,-2.39
2018-12-15T06:37:27.642Z,-2.4
2018-12-15T06:38:27.371Z,-2.37
2018-12-15T06:39:27.611Z,-2.39
2018-12-15T06:40:27.582Z,-2.32
2018-12-15T06:41:27.561Z,-2.42
2018-12-15T06:42:27.543Z,-2.39
2018-12-15T06:43:27.540Z,-2.34
2018-12-15T06:44:27.001Z,-2.47
2018-12-15T06:45:27.232Z,-2.39
2018-12-15T06:46:27.217Z,-2.37
2018-12-15T06:47:27.197Z,-2.36
2018-12-15T06:48:27.443Z,-2.4
2018-12-15T06:49:27.405Z,-2.36
2018-12-15T06:50:27.376Z,-2.34
2018-12-15T06:51:27.360Z,-2.39
2018-12-15T06:52:27.341Z,-2.39
2018-12-15T06:53:27.069Z,-2.43
2018-12-15T06:54:27.300Z,-2.4
2018-12-15T06:55:27.034Z,-2.37
2018-12-15T06:56:27.257Z,-2.43
2018-12-15T06:57:26.990Z,-2.4
2018-12-15T06:58:27.210Z,-2.4
2018-12-15T06:59:27.196Z,-2.36
2018-12-15T07:00:26.924Z,-2.4
2018-12-15T07:01:27.159Z,-2.39
2018-12-15T07:02:27.135Z,-2.39
2018-12-15T07:03:26.866Z,-2.36
2018-12-15T07:04:27.094Z,-2.47
2018-12-15T07:05:27.072Z,-2.47
2018-12-15T07:06:26.804Z,-2.5
2018-12-15T07:07:27.030Z,-2.5
2018-12-15T07:08:27.010Z,-2.53
2018-12-15T07:09:26.988Z,-2.5
2018-12-15T07:10:26.972Z,-2.44
2018-12-15T07:11:26.955Z,-2.46
2018-12-15T07:12:26.928Z,-2.5
2018-12-15T07:13:26.916Z,-2.53
2018-12-15T07:14:26.892Z,-2.55
2018-12-15T07:15:26.869Z,-2.4
2018-12-15T07:16:26.844Z,-2.57
2018-12-15T07:17:26.824Z,-2.43
2018-12-15T07:18:26.814Z,-2.47
2018-12-15T07:19:26.786Z,-2.4
2018-12-15T07:20:26.766Z,-2.5
2018-12-15T07:21:26.748Z,-2.53
2018-12-15T07:22:26.727Z,-2.46
2018-12-15T07:23:26.706Z,-2.44
2018-12-15T07:24:26.691Z,-2.5
2018-12-15T07:25:26.663Z,-2.54
2018-12-15T07:26:26.652Z,-2.4
2018-12-15T07:27:26.617Z,-2.54
2018-12-15T07:28:26.603Z,-2.53
2018-12-15T07:29:26.583Z,-2.39
2018-12-15T07:30:26.560Z,-2.39
2018-12-15T07:31:26.544Z,-2.36
2018-12-15T07:32:26.519Z,-2.39
2018-12-15T07:33:26.506Z,-2.37
2018-12-15T07:34:26.479Z,-2.36
2018-12-15T07:35:26.214Z,-2.49
2018-12-15T07:36:26.441Z,-2.36
2018-12-15T07:37:26.168Z,-2.39
2018-12-15T07:38:26.395Z,-2.4
2018-12-15T07:39:26.376Z,-2.39
2018-12-15T07:40:26.358Z,-2.42
2018-12-15T07:41:26.335Z,-2.36
2018-12-15T07:42:26.319Z,-2.43
2018-12-15T07:43:26.299Z,-2.32
2018-12-15T07:44:26.275Z,-2.43
2018-12-15T07:45:26.257Z,-2.37
2018-12-15T07:46:26.235Z,-2.44
2018-12-15T07:47:26.213Z,-2.42
2018-12-15T07:48:26.354Z,-2.44
2018-12-15T07:49:26.183Z,-2.5
2018-12-15T07:50:26.153Z,-2.46
2018-12-15T07:51:26.128Z,-2.4
2018-12-15T07:52:26.110Z,-2.44
2018-12-15T07:53:26.091Z,-2.42
2018-12-15T07:54:26.073Z,-2.4
2018-12-15T07:55:25.803Z,-2.44
2018-12-15T07:56:26.037Z,-2.37
2018-12-15T07:57:26.054Z,-2.32
2018-12-15T07:58:25.992Z,-2.27
2018-12-15T07:59:25.973Z,-2.34
2018-12-15T08:00:25.705Z,-2.3
2018-12-15T08:01:25.928Z,-2.25
2018-12-15T08:02:25.905Z,-2.32
2018-12-15T08:03:25.893Z,-2.28
2018-12-15T08:04:25.620Z,-2.23
2018-12-15T08:05:25.845Z,-2.23
2018-12-15T08:06:25.576Z,-2.24
2018-12-15T08:07:25.621Z,-2.23
2018-12-15T08:08:25.788Z,-2.24
2018-12-15T08:09:25.763Z,-2.25
2018-12-15T08:10:25.499Z,-2.21
2018-12-15T08:11:25.722Z,-2.21
2018-12-15T08:12:25.709Z,-2.21
2018-12-15T08:13:25.689Z,-2.21
2018-12-15T08:14:25.663Z,-2.28
2018-12-15T08:15:25.645Z,-2.18
2018-12-15T08:16:25.621Z,-2.2
2018-12-15T08:17:25.602Z,-2.24
2018-12-15T08:18:25.588Z,-2.23
2018-12-15T08:19:25.573Z,-2.06
2018-12-15T08:20:25.289Z,-2.05
2018-12-15T08:21:25.522Z,-1.97
2018-12-15T08:22:31.028Z,-2.1
2018-12-15T08:23:25.479Z,-1.97
2018-12-15T08:24:25.479Z,-2.09
2018-12-15T08:25:25.438Z,-1.99
2018-12-15T08:26:25.417Z,-2.06
2018-12-15T08:27:25.400Z,-1.91
2018-12-15T08:28:25.380Z,-2.05
2018-12-15T08:29:25.356Z,-2
2018-12-15T08:30:25.423Z,-2.02
2018-12-15T08:31:25.319Z,-1.96
2018-12-15T08:32:25.305Z,-1.92
2018-12-15T08:33:25.035Z,-2.05
2018-12-15T08:34:25.259Z,-1.97
2018-12-15T08:35:25.238Z,-2.02
2018-12-15T08:36:25.226Z,-2
2018-12-15T08:37:25.201Z,-1.99
2018-12-15T08:38:24.928Z,-1.99
2018-12-15T08:39:25.165Z,-1.99
2018-12-15T08:40:25.142Z,-1.99
2018-12-15T08:41:25.117Z,-1.94
2018-12-15T08:42:25.102Z,-1.92
2018-12-15T08:43:25.079Z,-1.82
2018-12-15T08:44:25.064Z,-1.78
2018-12-15T08:45:25.051Z,-1.81
2018-12-15T08:46:25.024Z,-1.85
2018-12-15T08:47:25.004Z,-1.86
2018-12-15T08:48:24.746Z,-1.82
2018-12-15T08:49:24.960Z,-1.79
2018-12-15T08:50:24.939Z,-1.84
2018-12-15T08:51:24.674Z,-1.76
2018-12-15T08:52:24.653Z,-1.86
2018-12-15T08:53:24.635Z,-1.67
2018-12-15T08:54:24.862Z,-1.74
2018-12-15T08:55:24.590Z,-1.64
2018-12-15T08:56:24.823Z,-1.63
2018-12-15T08:57:24.549Z,-1.61
2018-12-15T08:58:24.784Z,-1.56
2018-12-15T08:59:24.758Z,-1.52
2018-12-15T09:00:24.737Z,-1.5
2018-12-15T09:01:24.714Z,-1.58
2018-12-15T09:02:24.696Z,-1.5
2018-12-15T09:03:24.430Z,-1.46
2018-12-15T09:04:24.659Z,-1.48
2018-12-15T09:05:24.634Z,-1.48
2018-12-15T09:06:24.616Z,-1.48
2018-12-15T09:07:24.349Z,-1.49
2018-12-15T09:08:24.574Z,-1.37
2018-12-15T09:09:24.561Z,-1.37
2018-12-15T09:10:24.535Z,-1.35
2018-12-15T09:11:24.516Z,-1.43
2018-12-15T09:12:24.499Z,-1.32
2018-12-15T09:13:24.475Z,-1.35
2018-12-15T09:14:24.453Z,-1.4
2018-12-15T09:15:24.439Z,-1.25
2018-12-15T09:16:31.174Z,-1.3
2018-12-15T09:17:24.398Z,-1.3
2018-12-15T09:18:24.378Z,-1.22
2018-12-15T09:19:24.367Z,-1.21
2018-12-15T09:20:24.339Z,-1.17
2018-12-15T09:21:24.340Z,-1.27
2018-12-15T09:22:24.308Z,-1.21
2018-12-15T09:23:24.282Z,-1.1
2018-12-15T09:24:24.267Z,-1.25
2018-12-15T09:25:24.241Z,-1.22
2018-12-15T09:26:24.222Z,-1.27
2018-12-15T09:27:24.205Z,-1.25
2018-12-15T09:28:23.937Z,-1.09
2018-12-15T09:29:24.160Z,-1.1
2018-12-15T09:30:25.318Z,-1.1
2018-12-15T09:31:24.122Z,-1.09
2018-12-15T09:32:24.154Z,-1.07
2018-12-15T09:33:24.084Z,-0.95
2018-12-15T09:34:24.058Z,-0.92
2018-12-15T09:35:24.041Z,-0.91
2018-12-15T09:36:24.026Z,-0.85
2018-12-15T09:37:24.010Z,-0.84
2018-12-15T09:38:23.982Z,-0.79
2018-12-15T09:39:23.963Z,-0.84
2018-12-15T09:40:23.942Z,-0.79
2018-12-15T09:41:23.925Z,-0.77
2018-12-15T09:42:23.905Z,-0.64
2018-12-15T09:43:23.893Z,-0.69
2018-12-15T09:44:23.927Z,-0.58
2018-12-15T09:45:23.847Z,-0.66
2018-12-15T09:46:23.827Z,-0.67
2018-12-15T09:47:23.559Z,-0.62
2018-12-15T09:48:23.789Z,-0.52
2018-12-15T09:49:23.530Z,-0.52
2018-12-15T09:50:23.749Z,-0.51
2018-12-15T09:51:23.736Z,-0.54
2018-12-15T09:52:23.716Z,-0.52
2018-12-15T09:53:23.690Z,-0.51
2018-12-15T09:54:23.671Z,-0.55
2018-12-15T09:55:23.657Z,-0.38
2018-12-15T09:56:23.636Z,-0.4
2018-12-15T09:57:23.369Z,-0.31
2018-12-15T09:58:23.348Z,-0.3
2018-12-15T09:59:23.581Z,-0.34
2018-12-15T10:00:23.308Z,-0.34
2018-12-15T10:01:23.667Z,-0.31
2018-12-15T10:02:23.589Z,-0.38
2018-12-15T10:03:23.250Z,-0.38
2018-12-15T10:04:23.478Z,-0.38
2018-12-15T10:05:23.463Z,-0.3
2018-12-15T10:06:23.445Z,-0.37
2018-12-15T10:07:23.422Z,-0.33
2018-12-15T10:08:23.408Z,-0.34
2018-12-15T10:09:23.383Z,-0.31
2018-12-15T10:10:23.361Z,-0.4
2018-12-15T10:11:23.345Z,-0.37
2018-12-15T10:12:23.323Z,-0.34
2018-12-15T10:13:23.065Z,-0.27
2018-12-15T10:14:23.284Z,-0.33
2018-12-15T10:15:23.270Z,-0.36
2018-12-15T10:16:23.263Z,-0.19
2018-12-15T10:17:23.231Z,-0.15
2018-12-15T10:18:23.215Z,-0.2
2018-12-15T10:19:29.031Z,-0.1
2018-12-15T10:20:23.173Z,-0.09
2018-12-15T10:21:23.153Z,-0.13
2018-12-15T10:22:23.133Z,-0.1
2018-12-15T10:23:23.119Z,-0.09
2018-12-15T10:24:23.094Z,-0.04
2018-12-15T10:25:22.827Z,-0.05
2018-12-15T10:26:23.059Z,-0.09
2018-12-15T10:27:23.043Z,-0.12
2018-12-15T10:28:23.025Z,-0.05
2018-12-15T10:29:22.756Z,-0.18
2018-12-15T10:30:22.987Z,-0.13
2018-12-15T10:31:22.967Z,-0.18
2018-12-15T10:32:22.948Z,-0.25
2018-12-15T10:33:22.980Z,-0.33
2018-12-15T10:34:22.915Z,-0.23
2018-12-15T10:35:22.892Z,-0.3
2018-12-15T10:36:22.622Z,-0.37
2018-12-15T10:37:22.847Z,-0.38
2018-12-15T10:38:22.842Z,-0.4
2018-12-15T10:39:22.562Z,-0.37
2018-12-15T10:40:22.544Z,-0.51
2018-12-15T10:41:22.783Z,-0.45
2018-12-15T10:42:22.517Z,-0.46
2018-12-15T10:43:22.760Z,-0.56
2018-12-15T10:44:22.719Z,-0.56
2018-12-15T10:45:22.702Z,-0.54
2018-12-15T10:46:22.687Z,-0.55
2018-12-15T10:47:22.658Z,-0.66
2018-12-15T10:48:22.641Z,-0.69
2018-12-15T10:49:22.623Z,-0.67
2018-12-15T10:50:22.615Z,-0.72
2018-12-15T10:51:22.343Z,-0.84
2018-12-15T10:52:22.572Z,-0.74
2018-12-15T10:53:22.795Z,-0.69
2018-12-15T10:54:22.593Z,-0.67
2018-12-15T10:55:22.270Z,-0.67
2018-12-15T10:56:22.489Z,-0.69
2018-12-15T10:57:22.471Z,-0.7
2018-12-15T10:58:22.453Z,-0.66
2018-12-15T10:59:22.430Z,-0.62
2018-12-15T11:00:22.409Z,-0.59
2018-12-15T11:01:22.456Z,-0.66
2018-12-15T11:02:22.123Z,-0.67
2018-12-15T11:03:22.105Z,-0.66
2018-12-15T11:04:22.382Z,-0.66
2018-12-15T11:05:22.319Z,-0.66
2018-12-15T11:06:22.320Z,-0.67
2018-12-15T11:07:22.274Z,-0.56
2018-12-15T11:08:22.311Z,-0.54
2018-12-15T11:09:21.992Z,-0.62
2018-12-15T11:10:22.219Z,-0.67
2018-12-15T11:11:22.267Z,-0.64
2018-12-15T11:12:22.189Z,-0.62
2018-12-15T11:13:22.164Z,-0.59
2018-12-15T11:14:22.134Z,-0.64
2018-12-15T11:15:21.875Z,-0.66
2018-12-15T11:16:22.107Z,-0.69
2018-12-15T11:17:22.085Z,-0.67
2018-12-15T11:18:22.066Z,-0.64
2018-12-15T11:19:22.050Z,-0.64
2018-12-15T11:20:22.032Z,-0.67
2018-12-15T11:21:21.757Z,-0.64
2018-12-15T11:22:21.990Z,-0.66
2018-12-15T11:23:21.970Z,-0.66
2018-12-15T11:24:21.947Z,-0.64
2018-12-15T11:25:21.927Z,-0.56
2018-12-15T11:26:21.906Z,-0.56
2018-12-15T11:27:21.899Z,-0.66
2018-12-15T11:28:21.873Z,-0.69
2018-12-15T11:29:21.895Z,-0.73
2018-12-15T11:30:21.830Z,-0.62
2018-12-15T11:31:21.811Z,-0.67
2018-12-15T11:32:21.802Z,-0.67
2018-12-15T11:33:21.779Z,-0.64
2018-12-15T11:34:21.759Z,-0.64
2018-12-15T11:35:21.743Z,-0.67
2018-12-15T11:36:21.719Z,-0.61
2018-12-15T11:37:21.694Z,-0.58
2018-12-15T11:38:21.683Z,-0.51
2018-12-15T11:39:21.660Z,-0.58
2018-12-15T11:40:21.647Z,-0.69
2018-12-15T11:41:21.630Z,-0.66
2018-12-15T11:42:21.604Z,-0.62
2018-12-15T11:43:21.583Z,-0.64
2018-12-15T11:44:21.563Z,-0.61
2018-12-15T11:45:21.546Z,-0.69
2018-12-15T11:46:21.522Z,-0.67
2018-12-15T11:47:21.259Z,-0.7
2018-12-15T11:48:21.239Z,-0.62
2018-12-15T11:49:21.497Z,-0.67
2018-12-15T11:50:21.451Z,-0.67
2018-12-15T11:51:21.432Z,-0.55
2018-12-15T11:52:21.165Z,-0.61
2018-12-15T11:53:21.392Z,-0.58
2018-12-15T11:54:21.121Z,-0.51
2018-12-15T11:55:21.353Z,-0.37
2018-12-15T11:56:21.343Z,-0.45
2018-12-15T11:57:21.317Z,-0.45
2018-12-15T11:58:21.049Z,-0.4
2018-12-15T11:59:21.293Z,-0.49
2018-12-15T12:00:21.260Z,-0.59
2018-12-15T12:01:21.246Z,-0.54
2018-12-15T12:02:21.220Z,-0.62
2018-12-15T12:03:20.955Z,-0.69
2018-12-15T12:04:21.188Z,-0.69
2018-12-15T12:05:21.169Z,-0.62
2018-12-15T12:06:21.139Z,-0.69
2018-12-15T12:07:21.128Z,-0.69
2018-12-15T12:08:21.101Z,-0.59
2018-12-15T12:09:21.086Z,-0.49
2018-12-15T12:10:21.065Z,-0.59
2018-12-15T12:11:21.051Z,-0.56
2018-12-15T12:12:21.024Z,-0.69
2018-12-15T12:13:21.012Z,-0.62
2018-12-15T12:14:20.991Z,-0.62
2018-12-15T12:15:20.971Z,-0.59
2018-12-15T12:16:20.948Z,-0.69
2018-12-15T12:17:20.948Z,-0.59
2018-12-15T12:18:20.911Z,-0.62
2018-12-15T12:19:20.896Z,-0.61
2018-12-15T12:20:20.628Z,-0.66
2018-12-15T12:21:20.854Z,-0.67
2018-12-15T12:22:20.592Z,-0.67
2018-12-15T12:23:20.825Z,-0.7
2018-12-15T12:24:20.598Z,-0.69
2018-12-15T12:25:20.776Z,-0.72
2018-12-15T12:26:20.759Z,-0.64
2018-12-15T12:27:20.739Z,-0.67
2018-12-15T12:28:20.721Z,-0.7
2018-12-15T12:29:20.461Z,-0.77
2018-12-15T12:30:20.443Z,-0.8
2018-12-15T12:31:20.664Z,-0.73
2018-12-15T12:32:20.398Z,-0.7
2018-12-15T12:33:20.627Z,-0.66
2018-12-15T12:34:20.603Z,-0.77
2018-12-15T12:35:20.583Z,-0.77
2018-12-15T12:36:20.563Z,-0.82
2018-12-15T12:37:20.554Z,-0.77
2018-12-15T12:38:20.524Z,-0.91
2018-12-15T12:39:20.514Z,-0.79
2018-12-15T12:40:20.244Z,-0.82
2018-12-15T12:41:20.220Z,-0.66
2018-12-15T12:42:20.202Z,-0.69
2018-12-15T12:43:20.438Z,-0.66
2018-12-15T12:44:20.415Z,-0.61
2018-12-15T12:45:20.393Z,-0.67
2018-12-15T12:46:20.127Z,-0.59
2018-12-15T12:47:20.359Z,-0.52
2018-12-15T12:48:20.334Z,-0.51
2018-12-15T12:49:20.314Z,-0.55
2018-12-15T12:50:20.301Z,-0.56
2018-12-15T12:51:20.284Z,-0.55
2018-12-15T12:52:20.259Z,-0.55
2018-12-15T12:53:20.247Z,-0.59
2018-12-15T12:54:20.221Z,-0.49
2018-12-15T12:55:20.201Z,-0.46
2018-12-15T12:56:19.937Z,-0.51